Time;durP1;ratioP1;P1;durP2;ratioP2;P2;SDS_P1;SDS_P2;PMS_P1;PMS_P2;Temp;Humidity;BMP_temperature;BMP_pressure;BME280_temperature;BME280_humidity;BME280_pressure;Samples;Min_cycle;Max_cycle;Signal;HPM_P1;HPM_P2
2024/03/01 00:00:45;;;;;;;85.27;22.57;;;;;;;;;;758071;184;864357;-67
2024/03/01 00:03:10;;;;;;;74.67;20.17;;;;;;;;;;749170;185;918916;-66
2024/03/01 00:05:36;;;;;;;104.55;21.15;;;;;;;;;;750732;184;919257;-66
2024/03/01 00:08:02;;;;;;;79.17;21.07;;;;;;;;;;756939;185;938063;-66
2024/03/01 00:10:28;;;;;;;65.50;20.67;;;;;;;;;;750566;185;914985;-66
2024/03/01 00:12:54;;;;;;;140.73;22.60;;;;;;;;;;750841;183;1020161;-67
2024/03/01 00:15:20;;;;;;;119.57;21.77;;;;;;;;;;757236;184;900729;-67
2024/03/01 00:17:46;;;;;;;26.20;13.40;;;;;;;;;;750609;185;918683;-66
2024/03/01 00:20:12;;;;;;;36.47;16.05;;;;;;;;;;753137;185;919641;-67
2024/03/01 00:22:37;;;;;;;126.30;22.30;;;;;;;;;;755318;185;818362;-68
2024/03/01 00:25:03;;;;;;;88.50;24.77;;;;;;;;;;749974;184;918573;-66
2024/03/01 00:27:29;;;;;;;53.20;18.17;;;;;;;;;;750712;185;816848;-67
2024/03/01 00:29:55;;;;;;;69.13;21.13;;;;;;;;;;753069;184;891253;-68
2024/03/01 00:32:21;;;;;;;64.93;21.90;;;;;;;;;;754935;184;921751;-69
2024/03/01 00:34:47;;;;;;;116.10;25.80;;;;;;;;;;751159;184;854692;-66
2024/03/01 00:37:13;;;;;;;140.73;27.00;;;;;;;;;;751851;185;813140;-66
2024/03/01 00:39:39;;;;;;;64.00;20.77;;;;;;;;;;753879;185;920615;-66
2024/03/01 00:42:05;;;;;;;68.63;19.80;;;;;;;;;;753691;185;841258;-64
2024/03/01 00:44:30;;;;;;;79.80;24.33;;;;;;;;;;751674;185;918388;-66
2024/03/01 00:46:56;;;;;;;54.53;20.17;;;;;;;;;;755638;185;917662;-65
2024/03/01 00:49:22;;;;;;;96.27;23.47;;;;;;;;;;747835;184;920801;-65
2024/03/01 00:51:48;;;;;;;32.47;17.13;;;;;;;;;;750637;185;852623;-67
2024/03/01 00:54:14;;;;;;;88.30;20.97;;;;;;;;;;752637;185;824961;-65
2024/03/01 00:56:39;;;;;;;64.50;19.27;;;;;;;;;;755677;185;914998;-64
2024/03/01 00:59:05;;;;;;;59.93;19.57;;;;;;;;;;750818;185;818915;-66
2024/03/01 01:01:31;;;;;;;87.45;22.35;;;;;;;;;;747132;185;918901;-65
2024/03/01 01:03:57;;;;;;;43.17;16.97;;;;;;;;;;754995;185;919020;-65
2024/03/01 01:06:23;;;;;;;60.73;18.93;;;;;;;;;;751100;185;899033;-66
2024/03/01 01:08:49;;;;;;;60.17;20.50;;;;;;;;;;749546;185;921881;-66
2024/03/01 01:11:14;;;;;;;47.70;17.67;;;;;;;;;;752220;185;921096;-66
2024/03/01 01:13:41;;;;;;;26.77;15.40;;;;;;;;;;750294;185;922839;-64
2024/03/01 01:16:07;;;;;;;27.20;13.90;;;;;;;;;;747664;185;1024226;-66
2024/03/01 01:18:32;;;;;;;54.43;20.17;;;;;;;;;;748888;187;918357;-67
2024/03/01 01:20:58;;;;;;;42.73;19.10;;;;;;;;;;748062;187;916283;-66
2024/03/01 01:23:24;;;;;;;43.33;19.20;;;;;;;;;;744719;185;918653;-65
2024/03/01 01:25:50;;;;;;;47.93;19.57;;;;;;;;;;750685;184;918826;-66
2024/03/01 01:28:16;;;;;;;57.93;20.50;;;;;;;;;;753782;185;918820;-65
2024/03/01 01:30:45;;;;;;;36.85;17.80;;;;;;;;;;750076;185;914659;-66
2024/03/01 01:33:08;;;;;;;48.17;17.63;;;;;;;;;;751834;185;919123;-65
2024/03/01 01:35:33;;;;;;;57.63;19.60;;;;;;;;;;754545;184;918820;-65
2024/03/01 01:37:59;;;;;;;64.07;23.12;;;;;;;;;;750207;185;919334;-66
2024/03/01 01:40:30;;;;;;;44.20;18.00;;;;;;;;;;747533;185;1197668;-65
2024/03/01 01:42:52;;;;;;;37.87;16.17;;;;;;;;;;747729;185;921443;-65
2024/03/01 01:45:17;;;;;;;47.43;19.17;;;;;;;;;;754328;183;921457;-65
2024/03/01 01:47:43;;;;;;;54.73;20.70;;;;;;;;;;749205;184;919708;-66
2024/03/01 01:50:09;;;;;;;35.43;15.90;;;;;;;;;;752368;183;911344;-66
2024/03/01 01:52:35;;;;;;;54.00;16.70;;;;;;;;;;755270;185;813025;-64
2024/03/01 01:55:01;;;;;;;44.47;17.13;;;;;;;;;;753847;185;817760;-67
2024/03/01 01:57:27;;;;;;;37.60;16.10;;;;;;;;;;749332;185;919204;-66
2024/03/01 01:59:53;;;;;;;68.47;17.10;;;;;;;;;;753417;184;891125;-66
2024/03/01 02:02:19;;;;;;;56.90;16.97;;;;;;;;;;750324;185;812814;-65
2024/03/01 02:04:44;;;;;;;54.83;17.40;;;;;;;;;;751636;185;875499;-66
2024/03/01 02:07:11;;;;;;;72.93;16.63;;;;;;;;;;752169;185;939169;-65
2024/03/01 02:09:37;;;;;;;86.47;20.07;;;;;;;;;;750045;185;817016;-65
2024/03/01 02:12:03;;;;;;;89.03;20.03;;;;;;;;;;750844;182;715125;-67
2024/03/01 02:14:28;;;;;;;48.43;18.03;;;;;;;;;;749671;185;982886;-66
2024/03/01 02:16:54;;;;;;;63.43;19.47;;;;;;;;;;753840;185;871281;-65
2024/03/01 02:19:21;;;;;;;33.50;13.60;;;;;;;;;;751914;185;918414;-66
2024/03/01 02:22:03;;;;;;;53.20;15.43;;;;;;;;;;746405;185;1020668;-66
2024/03/01 02:24:28;;;;;;;50.17;12.50;;;;;;;;;;748822;185;919853;-66
2024/03/01 02:26:55;;;;;;;28.83;14.70;;;;;;;;;;757130;185;917938;-65
2024/03/01 02:29:21;;;;;;;52.13;15.30;;;;;;;;;;747972;185;918050;-65
2024/03/01 02:31:47;;;;;;;29.80;14.83;;;;;;;;;;747641;185;917379;-65
2024/03/01 02:34:13;;;;;;;62.90;17.23;;;;;;;;;;750087;184;918782;-66
2024/03/01 02:36:39;;;;;;;42.30;14.93;;;;;;;;;;750515;187;905202;-65
2024/03/01 02:39:16;;;;;;;56.00;15.10;;;;;;;;;;745544;185;919490;-66
2024/03/01 02:41:31;;;;;;;28.90;14.07;;;;;;;;;;747473;185;916088;-68
2024/03/01 02:43:56;;;;;;;42.17;14.30;;;;;;;;;;753874;184;816425;-65
2024/03/01 02:46:22;;;;;;;43.90;14.10;;;;;;;;;;751827;185;917729;-65
2024/03/01 02:48:48;;;;;;;40.22;15.30;;;;;;;;;;750250;184;919253;-66
2024/03/01 02:51:14;;;;;;;36.87;15.20;;;;;;;;;;755659;185;841736;-67
2024/03/01 02:53:40;;;;;;;35.93;15.43;;;;;;;;;;750189;184;920320;-66
2024/03/01 02:56:06;;;;;;;47.15;15.30;;;;;;;;;;749398;185;923515;-66
2024/03/01 02:58:32;;;;;;;42.63;15.87;;;;;;;;;;753488;185;921062;-66
2024/03/01 03:00:58;;;;;;;51.57;16.23;;;;;;;;;;750534;185;919547;-66
2024/03/01 03:03:24;;;;;;;60.70;16.80;;;;;;;;;;749354;185;904773;-65
2024/03/01 03:05:49;;;;;;;49.77;15.50;;;;;;;;;;751142;185;774301;-65
2024/03/01 03:08:16;;;;;;;42.17;16.13;;;;;;;;;;751449;184;819917;-66
2024/03/01 03:10:41;;;;;;;39.38;13.98;;;;;;;;;;753460;184;866959;-66
2024/03/01 03:13:07;;;;;;;25.30;15.10;;;;;;;;;;749604;185;812058;-66
2024/03/01 03:15:33;;;;;;;48.30;16.37;;;;;;;;;;757983;184;910823;-66
2024/03/01 03:17:59;;;;;;;29.93;14.20;;;;;;;;;;750290;185;915389;-66
2024/03/01 03:20:24;;;;;;;50.30;16.53;;;;;;;;;;751689;185;916353;-66
2024/03/01 03:22:50;;;;;;;34.13;14.10;;;;;;;;;;753277;185;841298;-66
2024/03/01 03:25:16;;;;;;;45.97;16.65;;;;;;;;;;751830;185;915803;-67
2024/03/01 03:27:42;;;;;;;41.57;16.83;;;;;;;;;;751205;185;854137;-66
2024/03/01 03:30:08;;;;;;;25.20;15.20;;;;;;;;;;751308;184;915369;-65
2024/03/01 03:32:34;;;;;;;37.07;16.00;;;;;;;;;;753848;185;904868;-67
2024/03/01 03:35:00;;;;;;;33.23;15.07;;;;;;;;;;750096;185;919919;-66
2024/03/01 03:37:25;;;;;;;36.93;18.10;;;;;;;;;;750189;185;918691;-66
2024/03/01 03:39:51;;;;;;;30.75;15.35;;;;;;;;;;754673;185;920599;-67
2024/03/01 03:42:17;;;;;;;23.37;14.50;;;;;;;;;;748616;185;921365;-65
2024/03/01 03:44:43;;;;;;;39.03;15.00;;;;;;;;;;748944;184;920949;-65
2024/03/01 03:47:09;;;;;;;42.80;16.70;;;;;;;;;;753919;185;919559;-67
2024/03/01 03:49:35;;;;;;;48.00;16.37;;;;;;;;;;748663;184;858597;-66
2024/03/01 03:52:01;;;;;;;31.40;17.20;;;;;;;;;;751291;184;911093;-68
2024/03/01 03:54:27;;;;;;;33.43;15.10;;;;;;;;;;752385;185;919382;-66
2024/03/01 03:56:53;;;;;;;65.67;16.40;;;;;;;;;;756743;183;919338;-67
2024/03/01 03:59:19;;;;;;;32.22;15.55;;;;;;;;;;749374;184;915104;-67
2024/03/01 04:01:45;;;;;;;42.20;18.60;;;;;;;;;;751250;184;911273;-66
2024/03/01 04:04:10;;;;;;;49.87;15.90;;;;;;;;;;755003;186;914919;-66
2024/03/01 04:06:37;;;;;;;46.57;15.77;;;;;;;;;;749502;185;980356;-66
2024/03/01 04:09:03;;;;;;;46.83;17.60;;;;;;;;;;749729;184;917439;-67
2024/03/01 04:11:28;;;;;;;54.40;16.90;;;;;;;;;;755028;185;922754;-65
2024/03/01 04:13:54;;;;;;;32.03;16.20;;;;;;;;;;749818;184;918784;-66
2024/03/01 04:16:20;;;;;;;57.93;17.57;;;;;;;;;;750351;185;951191;-67
2024/03/01 04:18:46;;;;;;;32.40;15.73;;;;;;;;;;752655;185;849794;-67
2024/03/01 04:21:11;;;;;;;43.40;17.30;;;;;;;;;;758500;183;913752;-66
2024/03/01 04:23:37;;;;;;;27.77;14.17;;;;;;;;;;747687;185;920925;-66
2024/03/01 04:26:09;;;;;;;29.05;14.23;;;;;;;;;;751525;184;982280;-66
2024/03/01 04:28:29;;;;;;;23.27;14.20;;;;;;;;;;753049;185;911777;-64
2024/03/01 04:30:55;;;;;;;28.37;15.20;;;;;;;;;;753145;184;918700;-66
2024/03/01 04:33:21;;;;;;;37.53;18.00;;;;;;;;;;747872;185;868317;-64
2024/03/01 04:35:47;;;;;;;46.27;16.20;;;;;;;;;;757901;185;785498;-66
2024/03/01 04:38:12;;;;;;;28.40;15.10;;;;;;;;;;750359;185;918249;-65
2024/03/01 04:40:40;;;;;;;37.93;15.87;;;;;;;;;;754621;184;817755;-65
2024/03/01 04:43:05;;;;;;;27.70;15.47;;;;;;;;;;754147;184;918747;-65
2024/03/01 04:45:31;;;;;;;27.20;15.43;;;;;;;;;;752578;185;921656;-67
2024/03/01 04:47:57;;;;;;;25.73;15.80;;;;;;;;;;747872;184;940546;-65
2024/03/01 04:50:23;;;;;;;22.03;13.70;;;;;;;;;;749726;185;914740;-66
2024/03/01 04:52:48;;;;;;;24.07;16.13;;;;;;;;;;756846;185;642002;-66
2024/03/01 04:55:14;;;;;;;24.50;16.83;;;;;;;;;;751596;185;622974;-66
2024/03/01 04:57:40;;;;;;;24.87;15.80;;;;;;;;;;751460;185;916265;-67
2024/03/01 05:00:12;;;;;;;29.47;16.87;;;;;;;;;;753097;185;916933;-66
2024/03/01 05:02:33;;;;;;;40.77;16.87;;;;;;;;;;751907;185;625167;-66
2024/03/01 05:04:59;;;;;;;19.53;15.27;;;;;;;;;;754552;185;619119;-67
2024/03/01 05:07:24;;;;;;;53.90;18.30;;;;;;;;;;758567;184;619755;-66
2024/03/01 05:09:50;;;;;;;37.97;16.10;;;;;;;;;;752275;184;633742;-66
2024/03/01 05:12:16;;;;;;;24.80;17.57;;;;;;;;;;755491;184;622309;-68
2024/03/01 05:14:42;;;;;;;29.27;17.20;;;;;;;;;;755748;185;622132;-66
2024/03/01 05:17:09;;;;;;;29.47;14.70;;;;;;;;;;756096;184;635439;-66
2024/03/01 05:19:38;;;;;;;24.10;13.73;;;;;;;;;;753259;184;622725;-67
2024/03/01 05:22:00;;;;;;;26.00;15.60;;;;;;;;;;750983;185;821992;-66
2024/03/01 05:24:26;;;;;;;23.83;15.50;;;;;;;;;;757919;185;621354;-66
2024/03/01 05:26:53;;;;;;;28.23;14.03;;;;;;;;;;752016;183;821975;-66
2024/03/01 05:29:19;;;;;;;27.87;16.13;;;;;;;;;;751731;185;816796;-66
2024/03/01 05:31:46;;;;;;;30.90;17.47;;;;;;;;;;754078;184;917730;-68
2024/03/01 05:34:11;;;;;;;43.77;15.57;;;;;;;;;;753717;183;846692;-66
2024/03/01 05:36:37;;;;;;;28.57;15.47;;;;;;;;;;752282;183;631589;-66
2024/03/01 05:39:15;;;;;;;26.77;14.05;;;;;;;;;;748796;185;973094;-67
2024/03/01 05:41:29;;;;;;;21.80;13.93;;;;;;;;;;752446;184;917295;-66
2024/03/01 05:43:55;;;;;;;21.70;13.30;;;;;;;;;;750568;184;846606;-66
2024/03/01 05:46:21;;;;;;;29.90;17.00;;;;;;;;;;754573;185;621854;-67
2024/03/01 05:48:46;;;;;;;28.73;15.23;;;;;;;;;;758365;184;616367;-66
2024/03/01 05:51:12;;;;;;;23.90;14.40;;;;;;;;;;748851;185;920193;-65
2024/03/01 05:53:41;;;;;;;27.90;14.90;;;;;;;;;;750988;185;817790;-66
2024/03/01 05:56:04;;;;;;;16.80;9.47;;;;;;;;;;757434;184;633177;-66
2024/03/01 05:58:30;;;;;;;28.90;13.73;;;;;;;;;;754087;184;652929;-66
2024/03/01 06:00:57;;;;;;;24.00;13.30;;;;;;;;;;749771;184;811867;-64
2024/03/01 06:03:22;;;;;;;30.20;14.03;;;;;;;;;;751068;185;913538;-66
2024/03/01 06:05:47;;;;;;;35.43;13.90;;;;;;;;;;757237;184;632498;-67
2024/03/01 06:08:13;;;;;;;25.47;13.80;;;;;;;;;;750777;185;814844;-66
2024/03/01 06:10:39;;;;;;;29.93;15.87;;;;;;;;;;748970;184;916984;-65
2024/03/01 06:13:05;;;;;;;32.63;14.50;;;;;;;;;;752432;185;819009;-66
2024/03/01 06:15:31;;;;;;;25.93;15.27;;;;;;;;;;751391;185;917875;-65
2024/03/01 06:17:57;;;;;;;22.60;15.47;;;;;;;;;;752198;184;1021752;-66
2024/03/01 06:20:23;;;;;;;28.13;15.40;;;;;;;;;;754333;185;867857;-67
2024/03/01 06:22:48;;;;;;;22.73;14.60;;;;;;;;;;752831;184;920632;-67
2024/03/01 06:25:14;;;;;;;30.93;16.97;;;;;;;;;;752553;185;1015718;-65
2024/03/01 06:27:40;;;;;;;26.43;15.17;;;;;;;;;;749636;183;892891;-66
2024/03/01 06:30:06;;;;;;;30.37;17.67;;;;;;;;;;750948;185;918254;-67
2024/03/01 06:32:32;;;;;;;32.47;16.23;;;;;;;;;;753148;185;915983;-67
2024/03/01 06:34:58;;;;;;;26.07;15.93;;;;;;;;;;748053;184;916023;-66
2024/03/01 06:37:24;;;;;;;31.63;19.90;;;;;;;;;;754685;185;887175;-68
2024/03/01 06:39:49;;;;;;;32.73;16.67;;;;;;;;;;748954;184;919689;-67
2024/03/01 06:42:15;;;;;;;37.07;18.73;;;;;;;;;;749438;185;875703;-66
2024/03/01 06:44:41;;;;;;;29.47;18.20;;;;;;;;;;753263;185;919393;-65
2024/03/01 06:47:08;;;;;;;25.37;17.07;;;;;;;;;;750923;185;795005;-66
2024/03/01 06:49:33;;;;;;;28.47;16.47;;;;;;;;;;749220;185;907921;-66
2024/03/01 06:51:59;;;;;;;26.33;17.35;;;;;;;;;;753877;185;717042;-67
2024/03/01 06:54:25;;;;;;;27.47;14.63;;;;;;;;;;747574;186;918056;-66
2024/03/01 06:56:51;;;;;;;24.73;17.63;;;;;;;;;;744291;185;918885;-66
2024/03/01 06:59:17;;;;;;;36.23;18.87;;;;;;;;;;748134;184;919177;-66
2024/03/01 07:01:42;;;;;;;21.27;15.40;;;;;;;;;;756144;185;807521;-66
2024/03/01 07:04:08;;;;;;;24.80;18.07;;;;;;;;;;748356;185;1018346;-66
2024/03/01 07:06:34;;;;;;;25.93;15.47;;;;;;;;;;751539;185;919433;-67
2024/03/01 07:09:00;;;;;;;27.57;15.90;;;;;;;;;;753132;185;910417;-66
2024/03/01 07:11:26;;;;;;;28.33;17.17;;;;;;;;;;746888;185;921665;-67
2024/03/01 07:13:52;;;;;;;19.60;10.50;;;;;;;;;;749431;185;919953;-68
2024/03/01 07:16:18;;;;;;;43.63;19.00;;;;;;;;;;751927;185;922664;-65
2024/03/01 07:18:43;;;;;;;55.40;27.60;;;;;;;;;;749206;185;951286;-67
2024/03/01 07:21:09;;;;;;;32.07;18.80;;;;;;;;;;748362;185;918975;-67
2024/03/01 07:23:36;;;;;;;48.20;29.40;;;;;;;;;;748580;185;1024112;-66
2024/03/01 07:26:01;;;;;;;53.07;29.07;;;;;;;;;;753764;184;1021215;-67
2024/03/01 07:28:27;;;;;;;29.30;18.00;;;;;;;;;;746648;185;916185;-65
2024/03/01 07:30:53;;;;;;;28.20;15.53;;;;;;;;;;750487;185;921594;-66
2024/03/01 07:33:19;;;;;;;33.90;19.67;;;;;;;;;;755924;185;881814;-65
2024/03/01 07:35:44;;;;;;;35.43;18.40;;;;;;;;;;756077;183;818835;-66
2024/03/01 07:38:10;;;;;;;26.13;16.17;;;;;;;;;;746280;183;816466;-66
2024/03/01 07:40:36;;;;;;;25.43;16.20;;;;;;;;;;755775;185;813273;-66
2024/03/01 07:43:02;;;;;;;28.63;17.50;;;;;;;;;;749496;184;918735;-65
2024/03/01 07:45:28;;;;;;;26.83;19.00;;;;;;;;;;749151;185;919726;-66
2024/03/01 07:47:54;;;;;;;30.23;19.77;;;;;;;;;;747401;185;924010;-67
2024/03/01 07:50:20;;;;;;;25.20;17.07;;;;;;;;;;759718;182;919368;-68
2024/03/01 07:52:45;;;;;;;26.57;17.20;;;;;;;;;;750568;185;917139;-67
2024/03/01 07:55:11;;;;;;;41.90;19.43;;;;;;;;;;750926;184;917530;-66
2024/03/01 07:57:37;;;;;;;28.23;16.07;;;;;;;;;;757841;184;771332;-66
2024/03/01 08:00:03;;;;;;;28.13;17.50;;;;;;;;;;754060;184;819020;-66
2024/03/01 08:02:29;;;;;;;33.07;16.40;;;;;;;;;;750649;185;915437;-66
2024/03/01 08:04:55;;;;;;;28.80;16.30;;;;;;;;;;755071;185;918252;-68
2024/03/01 08:07:21;;;;;;;25.00;17.60;;;;;;;;;;751931;185;865059;-65
2024/03/01 08:09:47;;;;;;;26.40;17.15;;;;;;;;;;749248;185;918546;-65
2024/03/01 08:12:13;;;;;;;32.30;18.03;;;;;;;;;;747898;185;918261;-65
2024/03/01 08:14:38;;;;;;;24.50;16.20;;;;;;;;;;758253;183;920051;-65
2024/03/01 08:17:04;;;;;;;29.63;19.90;;;;;;;;;;751045;184;832566;-66
2024/03/01 08:19:32;;;;;;;29.40;15.60;;;;;;;;;;754320;185;862326;-65
2024/03/01 08:21:58;;;;;;;26.33;16.17;;;;;;;;;;754719;185;845927;-65
2024/03/01 08:24:24;;;;;;;26.53;17.87;;;;;;;;;;751570;185;977112;-65
2024/03/01 08:26:50;;;;;;;22.70;16.93;;;;;;;;;;747431;184;917518;-66
2024/03/01 08:29:16;;;;;;;27.53;16.50;;;;;;;;;;752544;184;920434;-68
2024/03/01 08:31:41;;;;;;;26.97;16.10;;;;;;;;;;750841;184;882482;-66
2024/03/01 08:34:09;;;;;;;24.40;16.30;;;;;;;;;;751370;184;912292;-68
2024/03/01 08:36:34;;;;;;;28.43;17.53;;;;;;;;;;749828;184;916117;-67
2024/03/01 08:39:05;;;;;;;29.25;19.12;;;;;;;;;;753572;184;984186;-66
2024/03/01 08:41:30;;;;;;;23.90;16.37;;;;;;;;;;749276;185;843934;-67
2024/03/01 08:43:57;;;;;;;31.20;21.00;;;;;;;;;;749817;185;813602;-68
2024/03/01 08:46:24;;;;;;;39.37;24.23;;;;;;;;;;761366;184;629462;-68
2024/03/01 08:48:49;;;;;;;31.40;22.50;;;;;;;;;;753782;185;651253;-69
2024/03/01 08:51:15;;;;;;;48.47;32.10;;;;;;;;;;748945;185;928149;-67
2024/03/01 08:53:56;;;;;;;23.77;16.57;;;;;;;;;;749223;184;917605;-67
2024/03/01 08:56:22;;;;;;;38.45;24.60;;;;;;;;;;754493;185;926191;-66
2024/03/01 08:58:47;;;;;;;30.27;19.80;;;;;;;;;;757380;183;919131;-66
2024/03/01 09:01:19;;;;;;;29.83;19.40;;;;;;;;;;749976;184;906234;-68
2024/03/01 09:03:45;;;;;;;24.13;17.03;;;;;;;;;;750172;183;817105;-67
2024/03/01 09:06:11;;;;;;;29.10;17.87;;;;;;;;;;755648;185;810709;-68
2024/03/01 09:08:37;;;;;;;29.67;19.33;;;;;;;;;;751532;185;852838;-69
2024/03/01 09:11:03;;;;;;;40.12;22.55;;;;;;;;;;748968;185;856849;-68
2024/03/01 09:13:30;;;;;;;31.10;18.20;;;;;;;;;;752900;185;817492;-67
2024/03/01 09:15:54;;;;;;;32.10;19.80;;;;;;;;;;749330;185;1017958;-67
2024/03/01 09:18:41;;;;;;;28.35;19.73;;;;;;;;;;747016;185;839822;-69
2024/03/01 09:21:18;;;;;;;34.30;20.87;;;;;;;;;;750016;185;916569;-68
2024/03/01 09:23:44;;;;;;;30.73;20.00;;;;;;;;;;751285;185;917225;-66
2024/03/01 09:26:10;;;;;;;32.37;17.80;;;;;;;;;;751916;184;919537;-69
2024/03/01 09:28:36;;;;;;;28.80;20.30;;;;;;;;;;754635;184;953738;-69
2024/03/01 09:31:02;;;;;;;25.00;17.00;;;;;;;;;;747948;185;918979;-68
2024/03/01 09:33:28;;;;;;;25.33;16.40;;;;;;;;;;749097;185;920355;-67
2024/03/01 09:35:54;;;;;;;22.57;17.07;;;;;;;;;;756442;185;919580;-66
2024/03/01 09:38:20;;;;;;;45.63;30.50;;;;;;;;;;747880;184;1130994;-69
2024/03/01 09:41:02;;;;;;;22.60;16.07;;;;;;;;;;748297;185;989534;-67
2024/03/01 09:43:35;;;;;;;31.20;21.90;;;;;;;;;;751141;184;922650;-69
2024/03/01 09:46:03;;;;;;;34.10;25.27;;;;;;;;;;755793;184;891613;-67
2024/03/01 09:48:31;;;;;;;24.33;14.93;;;;;;;;;;754345;185;816808;-68
2024/03/01 09:50:58;;;;;;;23.63;14.27;;;;;;;;;;753367;185;866620;-67
2024/03/01 09:53:39;;;;;;;22.70;14.60;;;;;;;;;;749781;185;816857;-67
2024/03/01 09:56:05;;;;;;;19.73;13.47;;;;;;;;;;751060;185;815801;-69
2024/03/01 09:58:37;;;;;;;22.77;14.50;;;;;;;;;;754835;184;920220;-66
2024/03/01 10:01:04;;;;;;;27.50;16.50;;;;;;;;;;753804;185;917131;-69
2024/03/01 10:03:45;;;;;;;26.40;17.40;;;;;;;;;;747889;185;939652;-68
2024/03/01 10:06:26;;;;;;;19.90;14.73;;;;;;;;;;750700;185;906194;-66
2024/03/01 10:08:56;;;;;;;21.20;13.50;;;;;;;;;;750271;185;822386;-67
2024/03/01 10:11:22;;;;;;;21.63;14.53;;;;;;;;;;747641;184;920183;-66
2024/03/01 10:13:51;;;;;;;16.90;12.57;;;;;;;;;;755924;185;816327;-68
2024/03/01 10:16:22;;;;;;;16.33;11.60;;;;;;;;;;748034;184;918900;-68
2024/03/01 10:18:58;;;;;;;16.43;10.27;;;;;;;;;;751201;184;941601;-68
2024/03/01 10:21:38;;;;;;;14.20;9.47;;;;;;;;;;751349;185;974911;-68
2024/03/01 10:24:06;;;;;;;19.42;12.07;;;;;;;;;;750354;185;940188;-69
2024/03/01 10:26:31;;;;;;;11.17;8.10;;;;;;;;;;752821;185;717992;-67
2024/03/01 10:28:59;;;;;;;12.73;6.97;;;;;;;;;;752721;184;919936;-67
2024/03/01 10:31:43;;;;;;;10.80;7.33;;;;;;;;;;743508;185;1616503;-67
2024/03/01 10:34:09;;;;;;;13.53;7.43;;;;;;;;;;743220;184;918952;-68
2024/03/01 10:36:36;;;;;;;11.00;6.90;;;;;;;;;;750714;184;818456;-69
2024/03/01 10:39:02;;;;;;;14.07;8.87;;;;;;;;;;755977;185;837763;-68
2024/03/01 10:41:47;;;;;;;12.90;8.20;;;;;;;;;;747163;187;946202;-68
2024/03/01 10:44:28;;;;;;;12.90;7.17;;;;;;;;;;740755;185;919218;-68
2024/03/01 10:46:55;;;;;;;12.50;7.13;;;;;;;;;;747358;185;916834;-68
2024/03/01 10:49:22;;;;;;;10.30;6.60;;;;;;;;;;751428;185;637206;-68
2024/03/01 10:51:49;;;;;;;15.33;8.33;;;;;;;;;;745302;185;918423;-67
2024/03/01 10:54:15;;;;;;;12.90;7.53;;;;;;;;;;753913;185;886000;-68
2024/03/01 10:56:40;;;;;;;8.50;6.00;;;;;;;;;;750514;185;913308;-66
2024/03/01 10:59:09;;;;;;;10.60;5.97;;;;;;;;;;750641;184;911003;-67
2024/03/01 11:01:40;;;;;;;10.33;5.80;;;;;;;;;;753090;185;815284;-69
2024/03/01 11:04:07;;;;;;;12.23;6.90;;;;;;;;;;749656;185;814332;-69
2024/03/01 11:06:34;;;;;;;11.80;6.53;;;;;;;;;;748859;185;911370;-67
2024/03/01 11:09:00;;;;;;;12.47;7.63;;;;;;;;;;753239;184;812682;-70
2024/03/01 11:11:26;;;;;;;10.03;6.60;;;;;;;;;;760893;185;715869;-67
2024/03/01 11:13:52;;;;;;;10.93;6.70;;;;;;;;;;760200;184;753727;-68
2024/03/01 11:16:18;;;;;;;10.27;6.07;;;;;;;;;;754223;185;633971;-68
2024/03/01 11:18:44;;;;;;;11.27;6.70;;;;;;;;;;755280;183;1017302;-68
2024/03/01 11:21:10;;;;;;;9.23;6.57;;;;;;;;;;749149;185;915063;-68
2024/03/01 11:23:38;;;;;;;11.07;7.40;;;;;;;;;;754294;181;914633;-69
2024/03/01 11:26:22;;;;;;;12.70;7.87;;;;;;;;;;753077;185;694079;-67
2024/03/01 11:28:48;;;;;;;13.53;6.73;;;;;;;;;;754316;184;714536;-68
2024/03/01 11:31:14;;;;;;;10.63;7.20;;;;;;;;;;757147;185;918998;-67
2024/03/01 11:33:40;;;;;;;14.73;7.00;;;;;;;;;;749818;185;918856;-67
2024/03/01 11:36:21;;;;;;;10.30;6.70;;;;;;;;;;752917;184;818449;-68
2024/03/01 11:38:57;;;;;;;8.70;6.30;;;;;;;;;;752303;185;921481;-68
2024/03/01 11:41:26;;;;;;;9.67;6.87;;;;;;;;;;750900;185;918879;-67
2024/03/01 11:43:52;;;;;;;16.10;7.60;;;;;;;;;;756524;184;870159;-67
2024/03/01 11:46:25;;;;;;;12.60;7.80;;;;;;;;;;749565;185;919052;-66
2024/03/01 11:48:55;;;;;;;11.03;5.73;;;;;;;;;;748763;184;919606;-68
2024/03/01 11:51:33;;;;;;;12.07;7.37;;;;;;;;;;749004;184;811980;-67
2024/03/01 11:54:03;;;;;;;11.97;7.10;;;;;;;;;;750460;183;764199;-68
2024/03/01 11:56:46;;;;;;;9.90;7.00;;;;;;;;;;754576;185;769868;-68
2024/03/01 11:59:17;;;;;;;11.77;6.60;;;;;;;;;;746532;185;920581;-67
2024/03/01 12:01:43;;;;;;;11.00;7.00;;;;;;;;;;750301;184;915189;-67
2024/03/01 12:04:10;;;;;;;13.70;7.23;;;;;;;;;;752657;185;811973;-68
2024/03/01 12:06:56;;;;;;;15.67;6.90;;;;;;;;;;747845;187;916877;-67
2024/03/01 12:09:27;;;;;;;13.60;7.47;;;;;;;;;;747148;185;914826;-67
2024/03/01 12:11:56;;;;;;;12.07;7.43;;;;;;;;;;753067;184;922573;-68
2024/03/01 12:14:22;;;;;;;23.57;8.03;;;;;;;;;;747903;184;876070;-68
2024/03/01 12:16:59;;;;;;;10.37;6.70;;;;;;;;;;748380;184;914084;-67
2024/03/01 12:19:42;;;;;;;12.65;6.93;;;;;;;;;;749455;185;920330;-68
2024/03/01 12:22:08;;;;;;;15.57;6.60;;;;;;;;;;753038;183;923056;-66
2024/03/01 12:24:32;;;;;;;12.53;7.13;;;;;;;;;;756969;184;713003;-67
2024/03/01 12:27:18;;;;;;;11.90;7.27;;;;;;;;;;751017;185;919604;-68
2024/03/01 12:29:44;;;;;;;12.18;8.20;;;;;;;;;;750336;185;927171;-66
2024/03/01 12:32:13;;;;;;;11.17;7.53;;;;;;;;;;750608;184;913222;-67
2024/03/01 12:34:40;;;;;;;10.87;7.50;;;;;;;;;;749589;185;921512;-66
2024/03/01 12:37:22;;;;;;;12.13;7.27;;;;;;;;;;758926;185;623691;-68
2024/03/01 12:39:47;;;;;;;21.70;12.30;;;;;;;;;;755371;184;624867;-66
2024/03/01 12:42:13;;;;;;;26.33;14.90;;;;;;;;;;752401;185;890256;-67
2024/03/01 12:44:40;;;;;;;20.93;12.23;;;;;;;;;;750907;185;917664;-66
2024/03/01 12:47:09;;;;;;;33.17;19.83;;;;;;;;;;754068;183;919004;-67
2024/03/01 12:49:47;;;;;;;39.27;23.13;;;;;;;;;;754671;185;815895;-68
2024/03/01 12:52:15;;;;;;;34.07;20.80;;;;;;;;;;749238;185;819569;-67
2024/03/01 12:54:42;;;;;;;26.50;15.53;;;;;;;;;;747328;185;845483;-67
2024/03/01 12:57:22;;;;;;;10.73;7.63;;;;;;;;;;755351;185;637447;-67
2024/03/01 12:59:48;;;;;;;11.13;6.07;;;;;;;;;;752223;184;630551;-68
2024/03/01 13:02:34;;;;;;;8.63;6.30;;;;;;;;;;755828;185;628169;-68
2024/03/01 13:05:06;;;;;;;11.50;6.27;;;;;;;;;;754764;184;919438;-68
2024/03/01 13:07:30;;;;;;;10.43;5.93;;;;;;;;;;753619;185;824375;-67
2024/03/01 13:09:56;;;;;;;9.40;6.27;;;;;;;;;;747169;185;918298;-68
2024/03/01 13:12:24;;;;;;;12.53;6.63;;;;;;;;;;746505;184;918777;-67
2024/03/01 13:14:55;;;;;;;10.77;6.87;;;;;;;;;;753181;184;819755;-69
2024/03/01 13:17:23;;;;;;;10.77;8.20;;;;;;;;;;751420;185;919512;-66
2024/03/01 13:19:50;;;;;;;14.23;8.10;;;;;;;;;;750880;184;797585;-65
2024/03/01 13:22:16;;;;;;;13.70;7.83;;;;;;;;;;754970;185;754514;-65
2024/03/01 13:24:41;;;;;;;12.80;7.77;;;;;;;;;;750364;182;952529;-68
2024/03/01 13:27:13;;;;;;;13.00;8.00;;;;;;;;;;751005;185;853498;-65
2024/03/01 13:29:39;;;;;;;12.13;8.87;;;;;;;;;;747744;185;915823;-65
2024/03/01 13:32:21;;;;;;;20.03;9.43;;;;;;;;;;755368;184;895966;-67
2024/03/01 13:34:46;;;;;;;13.17;7.90;;;;;;;;;;753932;185;888764;-67
2024/03/01 13:37:13;;;;;;;14.30;7.80;;;;;;;;;;752687;184;855231;-68
2024/03/01 13:39:44;;;;;;;11.77;8.10;;;;;;;;;;749271;185;901309;-67
2024/03/01 13:42:09;;;;;;;13.80;8.40;;;;;;;;;;749185;185;919417;-69
2024/03/01 13:44:38;;;;;;;18.87;9.00;;;;;;;;;;755909;184;919245;-67
2024/03/01 13:47:04;;;;;;;13.57;9.20;;;;;;;;;;747018;185;905015;-67
2024/03/01 13:49:30;;;;;;;17.57;9.17;;;;;;;;;;747629;181;921334;-65
2024/03/01 13:51:56;;;;;;;16.17;9.77;;;;;;;;;;754529;185;825274;-67
2024/03/01 13:54:22;;;;;;;14.57;9.63;;;;;;;;;;752255;185;815726;-65
2024/03/01 13:56:49;;;;;;;14.07;8.98;;;;;;;;;;757140;185;918421;-70
2024/03/01 13:59:15;;;;;;;15.50;8.40;;;;;;;;;;753754;185;876332;-68
2024/03/01 14:01:42;;;;;;;28.07;15.67;;;;;;;;;;762196;184;870350;-68
2024/03/01 14:04:08;;;;;;;26.50;15.60;;;;;;;;;;750462;184;911562;-66
2024/03/01 14:06:34;;;;;;;28.13;13.67;;;;;;;;;;749379;185;816390;-67